createdAt,value
2017-10-30T00:00:04.443Z,85.93
2017-10-30T00:01:04.821Z,86.11
2017-10-30T00:02:04.475Z,86.35
2017-10-30T00:03:04.489Z,85.93
2017-10-30T00:04:04.825Z,86.4
2017-10-30T00:05:04.847Z,86.4
2017-10-30T00:06:04.858Z,86.11
2017-10-30T00:07:04.550Z,86.11
2017-10-30T00:08:04.888Z,85.93
2017-10-30T00:09:04.903Z,86.02
2017-10-30T00:10:04.925Z,86.11
2017-10-30T00:11:04.936Z,86.21
2017-10-30T00:12:04.999Z,86.21
2017-10-30T00:13:04.641Z,86.07
2017-10-30T00:14:04.989Z,86.16
2017-10-30T00:15:04.996Z,85.93
2017-10-30T00:16:05.006Z,86.07
2017-10-30T00:17:04.703Z,85.78
2017-10-30T00:18:05.045Z,85.49
2017-10-30T00:19:05.055Z,85.68
2017-10-30T00:20:05.066Z,85.49
2017-10-30T00:21:05.079Z,86.07
2017-10-30T00:22:04.774Z,86.3
2017-10-30T00:23:04.806Z,85.83
2017-10-30T00:24:04.804Z,86.44
2017-10-30T00:25:05.138Z,86.16
2017-10-30T00:26:05.161Z,86.02
2017-10-30T00:27:05.173Z,85.83
2017-10-30T00:28:04.915Z,86.11
2017-10-30T00:29:05.199Z,86.07
2017-10-30T00:30:04.892Z,86.49
2017-10-30T00:31:05.228Z,86.02
2017-10-30T00:32:05.245Z,86.25
2017-10-30T00:33:05.259Z,86.54
2017-10-30T00:34:04.953Z,86.21
2017-10-30T00:35:04.966Z,86.21
2017-10-30T00:36:04.981Z,86.49
2017-10-30T00:37:04.997Z,86.59
2017-10-30T00:38:05.328Z,86.68
2017-10-30T00:39:05.349Z,86.59
2017-10-30T00:40:05.363Z,86.97
2017-10-30T00:41:05.378Z,86.87
2017-10-30T00:42:05.078Z,86.68
2017-10-30T00:43:05.407Z,86.59
2017-10-30T00:44:05.427Z,86.49
2017-10-30T00:45:05.444Z,86.4
2017-10-30T00:46:05.501Z,86.97
2017-10-30T00:47:05.145Z,87.16
2017-10-30T00:48:05.481Z,87.35
2017-10-30T00:49:05.496Z,87.16
2017-10-30T00:50:05.190Z,87.06
2017-10-30T00:51:05.208Z,87.16
2017-10-30T00:52:05.555Z,87.54
2017-10-30T00:53:05.556Z,87.92
2017-10-30T00:54:05.252Z,87.45
2017-10-30T00:55:05.267Z,87.54
2017-10-30T00:56:05.604Z,87.82
2017-10-30T00:57:05.622Z,87.63
2017-10-30T00:58:05.637Z,87.16
2017-10-30T00:59:05.651Z,87.16
2017-10-30T01:00:05.660Z,86.97
2017-10-30T01:01:05.405Z,87.73
2017-10-30T01:02:05.370Z,87.35
2017-10-30T01:03:05.384Z,87.82
2017-10-30T01:04:05.724Z,87.73
2017-10-30T01:05:05.756Z,87.25
2017-10-30T01:06:05.747Z,88.39
2017-10-30T01:07:05.763Z,87.54
2017-10-30T01:08:05.458Z,87.82
2017-10-30T01:09:05.475Z,87.82
2017-10-30T01:10:05.809Z,87.25
2017-10-30T01:11:05.825Z,87.82
2017-10-30T01:12:05.846Z,87.63
2017-10-30T01:13:05.535Z,87.92
2017-10-30T01:14:05.867Z,88.1
2017-10-30T01:15:05.561Z,88.2
2017-10-30T01:16:05.579Z,88.29
2017-10-30T01:17:05.930Z,87.73
2017-10-30T01:18:05.655Z,88.1
2017-10-30T01:19:05.621Z,87.54
2017-10-30T01:20:05.967Z,87.73
2017-10-30T01:21:05.656Z,88.1
2017-10-30T01:22:05.665Z,88.29
2017-10-30T01:23:06.003Z,88.29
2017-10-30T01:24:05.695Z,88.68
2017-10-30T01:25:05.711Z,88.1
2017-10-30T01:26:06.046Z,88.29
2017-10-30T01:27:05.740Z,88.1
2017-10-30T01:28:06.075Z,88.01
2017-10-30T01:29:05.770Z,88.87
2017-10-30T01:30:05.783Z,88.87
2017-10-30T01:31:06.152Z,88.29
2017-10-30T01:32:05.814Z,88.1
2017-10-30T01:33:05.879Z,88.29
2017-10-30T01:34:06.169Z,87.92
2017-10-30T01:35:05.856Z,88.1
2017-10-30T01:36:06.191Z,87.82
2017-10-30T01:37:05.888Z,87.54
2017-10-30T01:38:06.227Z,88.2
2017-10-30T01:39:05.915Z,88.1
2017-10-30T01:40:06.251Z,88.29
2017-10-30T01:41:05.944Z,88.29
2017-10-30T01:42:06.286Z,88.01
2017-10-30T01:43:05.995Z,88.39
2017-10-30T01:44:06.316Z,88.77
2017-10-30T01:45:06.006Z,88.39
2017-10-30T01:46:06.347Z,88.58
2017-10-30T01:47:06.355Z,88.77
2017-10-30T01:48:06.049Z,88.82
2017-10-30T01:49:06.385Z,89.29
2017-10-30T01:50:06.414Z,89.96
2017-10-30T01:51:06.418Z,88.77
2017-10-30T01:52:06.158Z,89.15
2017-10-30T01:53:06.444Z,89.25
2017-10-30T01:54:06.463Z,89.39
2017-10-30T01:55:06.473Z,89.2
2017-10-30T01:56:06.168Z,89.39
2017-10-30T01:57:06.508Z,89.2
2017-10-30T01:58:06.518Z,89.25
2017-10-30T01:59:06.213Z,89.25
2017-10-30T02:00:06.552Z,88.96
2017-10-30T02:01:06.241Z,88.77
2017-10-30T02:02:06.254Z,89.06
2017-10-30T02:03:06.595Z,88.77
2017-10-30T02:04:06.605Z,88.58
2017-10-30T02:05:06.624Z,88.87
2017-10-30T02:06:06.639Z,88.77
2017-10-30T02:07:06.700Z,89.06
2017-10-30T02:08:06.672Z,89.34
2017-10-30T02:09:06.678Z,88.58
2017-10-30T02:10:06.373Z,88.96
2017-10-30T02:11:06.385Z,89.39
2017-10-30T02:12:06.744Z,89.67
2017-10-30T02:13:06.735Z,89.15
2017-10-30T02:14:06.750Z,88.68
2017-10-30T02:15:06.445Z,89.2
2017-10-30T02:16:06.460Z,89.2
2017-10-30T02:17:06.796Z,89.29
2017-10-30T02:18:06.820Z,89.58
2017-10-30T02:19:06.504Z,89.11
2017-10-30T02:20:06.840Z,88.44
2017-10-30T02:21:06.534Z,89.2
2017-10-30T02:22:06.546Z,88.92
2017-10-30T02:23:06.891Z,88.68
2017-10-30T02:24:06.576Z,88.96
2017-10-30T02:25:06.592Z,88.87
2017-10-30T02:26:06.927Z,88.82
2017-10-30T02:27:06.619Z,88.77
2017-10-30T02:28:06.957Z,88.77
2017-10-30T02:29:06.971Z,88.29
2017-10-30T02:30:06.992Z,88.73
2017-10-30T02:31:06.999Z,88.68
2017-10-30T02:32:06.695Z,88.48
2017-10-30T02:33:07.031Z,88.1
2017-10-30T02:34:06.725Z,88.58
2017-10-30T02:35:07.064Z,88.2
2017-10-30T02:36:07.074Z,88.39
2017-10-30T02:37:06.769Z,88.39
2017-10-30T02:38:07.106Z,88.29
2017-10-30T02:39:07.125Z,88.2
2017-10-30T02:40:07.189Z,88.58
2017-10-30T02:41:07.153Z,88.2
2017-10-30T02:42:07.159Z,88.73
2017-10-30T02:43:07.186Z,88.82
2017-10-30T02:44:07.195Z,88.73
2017-10-30T02:45:07.217Z,88.63
2017-10-30T02:46:07.227Z,88.54
2017-10-30T02:47:07.243Z,88.82
2017-10-30T02:48:07.250Z,89.11
2017-10-30T02:49:06.945Z,88.82
2017-10-30T02:50:06.958Z,88.92
2017-10-30T02:51:07.299Z,88.54
2017-10-30T02:52:07.310Z,88.77
2017-10-30T02:53:07.321Z,88.2
2017-10-30T02:54:07.341Z,88.39
2017-10-30T02:55:07.082Z,88.01
2017-10-30T02:56:07.371Z,88.01
2017-10-30T02:57:07.387Z,87.45
2017-10-30T02:58:07.074Z,87.16
2017-10-30T02:59:07.411Z,87.82
2017-10-30T03:00:07.428Z,87.82
2017-10-30T03:01:07.118Z,87.35
2017-10-30T03:02:07.134Z,87.73
2017-10-30T03:03:07.482Z,87.73
2017-10-30T03:04:07.485Z,88.25
2017-10-30T03:05:07.176Z,88.16
2017-10-30T03:06:07.537Z,88.54
2017-10-30T03:07:07.530Z,88.58
2017-10-30T03:08:07.223Z,88.1
2017-10-30T03:09:07.559Z,88.01
2017-10-30T03:10:08.824Z,88.2
2017-10-30T03:11:07.264Z,88.39
2017-10-30T03:12:07.604Z,88.73
2017-10-30T03:13:07.295Z,88.35
2017-10-30T03:14:07.310Z,88.16
2017-10-30T03:15:07.325Z,88.16
2017-10-30T03:16:07.336Z,88.16
2017-10-30T03:17:07.351Z,88.48
2017-10-30T03:18:07.380Z,87.63
2017-10-30T03:19:07.385Z,87.82
2017-10-30T03:20:07.397Z,88.01
2017-10-30T03:21:07.736Z,88.01
2017-10-30T03:22:07.753Z,88.29
2017-10-30T03:23:07.443Z,88.48
2017-10-30T03:24:07.780Z,88.06
2017-10-30T03:25:07.799Z,88.1
2017-10-30T03:26:07.807Z,88.48
2017-10-30T03:27:07.500Z,88.58
2017-10-30T03:28:07.837Z,88.48
2017-10-30T03:29:07.579Z,87.82
2017-10-30T03:30:07.869Z,87.92
2017-10-30T03:31:07.564Z,87.92
2017-10-30T03:32:07.576Z,88.01
2017-10-30T03:33:07.588Z,88.1
2017-10-30T03:34:07.604Z,88.29
2017-10-30T03:35:07.955Z,88.29
2017-10-30T03:36:07.635Z,88.58
2017-10-30T03:37:07.647Z,88.2
2017-10-30T03:38:07.986Z,88.39
2017-10-30T03:39:08.000Z,87.82
2017-10-30T03:40:07.691Z,88.29
2017-10-30T03:41:08.028Z,88.29
2017-10-30T03:42:08.043Z,88.39
2017-10-30T03:43:08.058Z,88.54
2017-10-30T03:44:07.799Z,88.2
2017-10-30T03:45:08.087Z,88.29
2017-10-30T03:46:07.778Z,88.1
2017-10-30T03:47:08.112Z,88.2
2017-10-30T03:48:07.808Z,88.35
2017-10-30T03:49:08.147Z,88.2
2017-10-30T03:50:08.165Z,88.29
2017-10-30T03:51:07.851Z,88.1
2017-10-30T03:52:07.867Z,88.2
2017-10-30T03:53:08.201Z,88.2
2017-10-30T03:54:08.224Z,88.2
2017-10-30T03:55:07.910Z,88.58
2017-10-30T03:56:08.242Z,88.48
2017-10-30T03:57:07.939Z,88.58
2017-10-30T03:58:08.286Z,88.29
2017-10-30T03:59:08.290Z,88.1
2017-10-30T04:00:07.983Z,88.39
2017-10-30T04:01:08.342Z,88.01
2017-10-30T04:02:08.334Z,88.2
2017-10-30T04:03:08.349Z,88.1
2017-10-30T04:04:08.371Z,88.29
2017-10-30T04:05:08.055Z,88.39
2017-10-30T04:06:08.069Z,88.48
2017-10-30T04:07:08.085Z,88.68
2017-10-30T04:08:08.097Z,88.01
2017-10-30T04:09:08.132Z,87.45
2017-10-30T04:10:08.452Z,87.54
2017-10-30T04:11:08.462Z,87.63
2017-10-30T04:12:08.479Z,87.35
2017-10-30T04:13:08.171Z,87.82
2017-10-30T04:14:08.508Z,87.63
2017-10-30T04:15:08.521Z,87.54
2017-10-30T04:16:08.537Z,87.25
2017-10-30T04:17:08.230Z,87.06
2017-10-30T04:18:08.571Z,87.35
2017-10-30T04:19:08.586Z,87.25
2017-10-30T04:20:08.275Z,88.01
2017-10-30T04:21:08.287Z,88.1
2017-10-30T04:22:08.625Z,87.45
2017-10-30T04:23:08.640Z,87.45
2017-10-30T04:24:08.659Z,87.45
2017-10-30T04:25:08.348Z,86.97
2017-10-30T04:26:08.683Z,86.87
2017-10-30T04:27:08.701Z,86.59
2017-10-30T04:28:08.711Z,86.59
2017-10-30T04:29:08.407Z,86.87
2017-10-30T04:30:08.760Z,86.97
2017-10-30T04:31:08.754Z,86.78
2017-10-30T04:32:08.448Z,86.49
2017-10-30T04:33:08.793Z,86.59
2017-10-30T04:34:08.480Z,87.16
2017-10-30T04:35:08.812Z,86.4
2017-10-30T04:36:08.508Z,87.16
2017-10-30T04:37:08.848Z,86.49
2017-10-30T04:38:08.552Z,86.59
2017-10-30T04:39:08.923Z,86.78
2017-10-30T04:40:08.564Z,87.45
2017-10-30T04:41:08.581Z,87.16
2017-10-30T04:42:08.598Z,86.49
2017-10-30T04:43:08.932Z,86.3
2017-10-30T04:44:08.949Z,86.59
2017-10-30T04:45:08.962Z,86.49
2017-10-30T04:46:08.656Z,86.4
2017-10-30T04:47:08.993Z,86.49
2017-10-30T04:48:09.015Z,87.06
2017-10-30T04:49:09.023Z,87.25
2017-10-30T04:50:08.715Z,86.78
2017-10-30T04:51:09.056Z,86.4
2017-10-30T04:52:09.066Z,86.59
2017-10-30T04:53:09.088Z,86.4
2017-10-30T04:54:08.775Z,86.44
2017-10-30T04:55:08.839Z,86.49
2017-10-30T04:56:08.803Z,86.68
2017-10-30T04:57:08.819Z,86.97
2017-10-30T04:58:09.153Z,86.49
2017-10-30T04:59:08.854Z,86.11
2017-10-30T05:00:09.187Z,86.11
2017-10-30T05:01:09.199Z,86.44
2017-10-30T05:02:08.892Z,86.35
2017-10-30T05:03:09.230Z,86.21
2017-10-30T05:04:09.249Z,85.97
2017-10-30T05:05:08.939Z,85.49
2017-10-30T05:06:09.276Z,85.49
2017-10-30T05:07:09.292Z,85.49
2017-10-30T05:08:09.310Z,85.3
2017-10-30T05:09:09.319Z,85.02
2017-10-30T05:10:09.337Z,85.02
2017-10-30T05:11:09.349Z,85.11
2017-10-30T05:12:09.417Z,85.49
2017-10-30T05:13:09.467Z,85.78
2017-10-30T05:14:09.397Z,85.68
2017-10-30T05:15:09.408Z,85.59
2017-10-30T05:16:09.422Z,85.68
2017-10-30T05:17:09.117Z,85.02
2017-10-30T05:18:09.132Z,85.59
2017-10-30T05:19:09.469Z,85.78
2017-10-30T05:20:09.162Z,85.78
2017-10-30T05:21:09.499Z,85.87
2017-10-30T05:22:09.518Z,85.49
2017-10-30T05:23:09.527Z,85.49
2017-10-30T05:24:09.219Z,85.78
2017-10-30T05:25:09.236Z,85.11
2017-10-30T05:26:09.568Z,85.59
2017-10-30T05:27:09.272Z,85.74
2017-10-30T05:28:09.610Z,85.64
2017-10-30T05:29:09.372Z,85.55
2017-10-30T05:30:09.658Z,85.55
2017-10-30T05:31:09.323Z,85.59
2017-10-30T05:32:09.660Z,86.21
2017-10-30T05:33:09.672Z,86.02
2017-10-30T05:34:09.695Z,85.83
2017-10-30T05:35:09.713Z,85.93
2017-10-30T05:36:09.400Z,85.93
2017-10-30T05:37:09.735Z,85.64
2017-10-30T05:38:09.428Z,85.59
2017-10-30T05:39:09.762Z,85.68
2017-10-30T05:40:09.462Z,85.02
2017-10-30T05:41:09.791Z,85.02
2017-10-30T05:42:09.484Z,85.21
2017-10-30T05:43:09.823Z,85.11
2017-10-30T05:44:09.518Z,85.3
2017-10-30T05:45:09.856Z,85.87
2017-10-30T05:46:09.871Z,85.3
2017-10-30T05:47:09.934Z,85.21
2017-10-30T05:48:09.904Z,85.02
2017-10-30T05:49:09.913Z,85.4
2017-10-30T05:50:09.624Z,85.11
2017-10-30T05:51:09.620Z,85.02
2017-10-30T05:52:09.637Z,85.3
2017-10-30T05:53:09.652Z,85.3
2017-10-30T05:54:09.993Z,85.21
2017-10-30T05:55:10.010Z,85.3
2017-10-30T05:56:09.693Z,85.3
2017-10-30T05:57:10.035Z,85.49
2017-10-30T05:58:10.059Z,85.3
2017-10-30T05:59:10.076Z,85.3
2017-10-30T06:00:09.756Z,85.02
2017-10-30T06:01:09.771Z,85.93
2017-10-30T06:02:09.785Z,85.55
2017-10-30T06:03:10.122Z,85.45
2017-10-30T06:04:10.140Z,85.74
2017-10-30T06:05:09.880Z,85.83
2017-10-30T06:06:10.168Z,85.64
2017-10-30T06:07:10.178Z,85.78
2017-10-30T06:08:09.874Z,85.87
2017-10-30T06:09:10.210Z,85.68
2017-10-30T06:10:09.904Z,85.59
2017-10-30T06:11:10.292Z,85.78
2017-10-30T06:12:10.257Z,85.21
2017-10-30T06:13:09.949Z,85.59
2017-10-30T06:14:10.289Z,85.59
2017-10-30T06:15:09.979Z,85.02
2017-10-30T06:16:09.996Z,85.21
2017-10-30T06:17:10.336Z,85.11
2017-10-30T06:18:10.348Z,84.92
2017-10-30T06:19:10.362Z,84.92
2017-10-30T06:20:10.055Z,84.92
2017-10-30T06:21:10.118Z,84.36
2017-10-30T06:22:10.086Z,84.36
2017-10-30T06:23:10.098Z,84.55
2017-10-30T06:24:10.437Z,84.36
2017-10-30T06:25:10.130Z,84.55
2017-10-30T06:26:10.144Z,84.55
2017-10-30T06:27:10.164Z,84.45
2017-10-30T06:28:10.177Z,83.97
2017-10-30T06:29:10.516Z,84.45
2017-10-30T06:30:10.532Z,84.64
2017-10-30T06:31:10.221Z,84.17
2017-10-30T06:32:10.558Z,84.74
2017-10-30T06:33:10.577Z,84.64
2017-10-30T06:34:10.593Z,84.55
2017-10-30T06:35:10.603Z,84.64
2017-10-30T06:36:10.617Z,84.64
2017-10-30T06:37:10.634Z,84.07
2017-10-30T06:38:10.653Z,83.97
2017-10-30T06:39:10.390Z,84.07
2017-10-30T06:40:10.675Z,83.97
2017-10-30T06:41:10.372Z,84.26
2017-10-30T06:42:10.384Z,84.55
2017-10-30T06:43:10.727Z,84.74
2017-10-30T06:44:10.748Z,83.88
2017-10-30T06:45:10.755Z,83.31
2017-10-30T06:46:10.767Z,83.5
2017-10-30T06:47:10.461Z,84.26
2017-10-30T06:48:10.475Z,83.69
2017-10-30T06:49:10.813Z,84.17
2017-10-30T06:50:10.827Z,83.78
2017-10-30T06:51:10.897Z,83.88
2017-10-30T06:52:10.538Z,83.88
2017-10-30T06:53:10.877Z,84.17
2017-10-30T06:54:10.938Z,83.69
2017-10-30T06:55:10.584Z,84.07
2017-10-30T06:56:10.925Z,83.69
2017-10-30T06:57:10.936Z,83.4
2017-10-30T06:58:10.950Z,82.69
2017-10-30T06:59:10.642Z,82.46
2017-10-30T07:00:10.983Z,82.55
2017-10-30T07:01:10.992Z,83.03
2017-10-30T07:02:10.688Z,83.12
2017-10-30T07:03:11.027Z,83.31
2017-10-30T07:04:11.038Z,82.65
2017-10-30T07:05:11.056Z,82.27
2017-10-30T07:06:10.752Z,82.84
2017-10-30T07:07:11.083Z,82.84
2017-10-30T07:08:10.780Z,82.84
2017-10-30T07:09:11.116Z,82.17
2017-10-30T07:10:10.813Z,82.55
2017-10-30T07:11:11.197Z,82.46
2017-10-30T07:12:11.158Z,82.46
2017-10-30T07:13:10.853Z,82.65
2017-10-30T07:14:10.971Z,83.4
2017-10-30T07:15:10.887Z,83.31
2017-10-30T07:16:11.223Z,83.12
2017-10-30T07:17:11.237Z,83.31
2017-10-30T07:18:11.261Z,83.31
2017-10-30T07:19:10.947Z,83.4
2017-10-30T07:20:10.960Z,82.84
2017-10-30T07:21:11.296Z,82.65
2017-10-30T07:22:11.309Z,82.27
2017-10-30T07:23:11.009Z,82.4
2017-10-30T07:24:11.346Z,82.55
2017-10-30T07:25:11.357Z,82.5
2017-10-30T07:26:11.434Z,82.21
2017-10-30T07:27:11.067Z,82.36
2017-10-30T07:28:11.412Z,83.5
2017-10-30T07:29:11.418Z,83.22
2017-10-30T07:30:11.441Z,83.78
2017-10-30T07:31:11.448Z,83.97
2017-10-30T07:32:11.491Z,84.17
2017-10-30T07:33:11.479Z,84.55
2017-10-30T07:34:11.172Z,84.64
2017-10-30T07:35:11.187Z,84.55
2017-10-30T07:36:11.201Z,83.97
2017-10-30T07:37:11.541Z,83.78
2017-10-30T07:38:11.556Z,83.22
2017-10-30T07:39:11.570Z,82.74
2017-10-30T07:40:11.584Z,82.36
2017-10-30T07:41:11.657Z,82.5
2017-10-30T07:42:11.293Z,82.21
2017-10-30T07:43:11.307Z,82.36
2017-10-30T07:44:11.325Z,82.88
2017-10-30T07:45:11.666Z,82.59
2017-10-30T07:46:11.675Z,82.21
2017-10-30T07:47:11.710Z,82.36
2017-10-30T07:48:11.706Z,82.27
2017-10-30T07:49:11.398Z,82.27
2017-10-30T07:50:11.413Z,82.93
2017-10-30T07:51:11.437Z,83.03
2017-10-30T07:52:11.448Z,82.84
2017-10-30T07:53:11.783Z,82.65
2017-10-30T07:54:11.798Z,82.84
2017-10-30T07:55:11.812Z,82.03
2017-10-30T07:56:11.556Z,81.74
2017-10-30T07:57:11.841Z,81.65
2017-10-30T07:58:11.533Z,81.93
2017-10-30T07:59:11.872Z,81.74
2017-10-30T08:00:11.903Z,81.74
2017-10-30T08:01:11.579Z,81.84
2017-10-30T08:02:11.595Z,80.6
2017-10-30T08:03:11.930Z,80.98
2017-10-30T08:04:11.625Z,80.6
2017-10-30T08:05:11.645Z,80.32
2017-10-30T08:06:11.980Z,80.03
2017-10-30T08:07:12.008Z,79.46
2017-10-30T08:08:11.690Z,79.03
2017-10-30T08:09:12.037Z,79.12
2017-10-30T08:10:12.045Z,78.93
2017-10-30T08:11:11.788Z,79.12
2017-10-30T08:12:11.754Z,78.17
2017-10-30T08:13:12.090Z,78.27
2017-10-30T08:14:12.104Z,78.08
2017-10-30T08:15:12.120Z,78.7
2017-10-30T08:16:11.816Z,78.17
2017-10-30T08:17:12.173Z,78.55
2017-10-30T08:18:12.178Z,77.89
2017-10-30T08:19:11.863Z,77.6
2017-10-30T08:20:12.210Z,77.98
2017-10-30T08:21:11.891Z,78.17
2017-10-30T08:22:12.226Z,77.6
2017-10-30T08:23:12.251Z,77.7
2017-10-30T08:24:12.267Z,76.84
2017-10-30T08:25:11.956Z,76.84
2017-10-30T08:26:11.974Z,77.12
2017-10-30T08:27:12.313Z,76.93
2017-10-30T08:28:12.334Z,77.22
2017-10-30T08:29:12.347Z,76.75
2017-10-30T08:30:12.036Z,76.75
2017-10-30T08:31:12.054Z,77.31
2017-10-30T08:32:12.069Z,77.22
2017-10-30T08:33:12.084Z,77.12
2017-10-30T08:34:12.421Z,77.22
2017-10-30T08:35:12.438Z,76.84
2017-10-30T08:36:12.452Z,76.75
2017-10-30T08:37:12.469Z,76.56
2017-10-30T08:38:12.486Z,76.37
2017-10-30T08:39:12.182Z,76.46
2017-10-30T08:40:12.518Z,76.27
2017-10-30T08:41:12.212Z,76.56
2017-10-30T08:42:12.549Z,75.99
2017-10-30T08:43:12.571Z,75.51
2017-10-30T08:44:12.265Z,76.18
2017-10-30T08:45:12.287Z,76.46
2017-10-30T08:46:12.614Z,76.18
2017-10-30T08:47:12.334Z,76.46
2017-10-30T08:48:12.650Z,76.46
2017-10-30T08:49:12.341Z,76.08
2017-10-30T08:50:12.358Z,75.04
2017-10-30T08:51:12.697Z,74.88
2017-10-30T08:52:12.719Z,74.31
2017-10-30T08:53:12.730Z,74.51
2017-10-30T08:54:12.424Z,73.84
2017-10-30T08:55:12.761Z,73.8
2017-10-30T08:56:12.778Z,73.9
2017-10-30T08:57:12.474Z,73.71
2017-10-30T08:58:12.814Z,73.36
2017-10-30T08:59:12.509Z,73.46
2017-10-30T09:00:12.844Z,73.08
2017-10-30T09:01:12.860Z,73.42
2017-10-30T09:02:12.876Z,73.33
2017-10-30T09:03:12.571Z,73.14
2017-10-30T09:04:12.913Z,73.65
2017-10-30T09:05:12.929Z,72.95
2017-10-30T09:06:12.617Z,72.41
2017-10-30T09:07:12.963Z,72.41
2017-10-30T09:08:12.654Z,72.32
2017-10-30T09:09:12.994Z,72.41
2017-10-30T09:10:13.011Z,72.13
2017-10-30T09:11:13.021Z,72.32
2017-10-30T09:12:13.047Z,72.22
2017-10-30T09:13:12.740Z,71.66
2017-10-30T09:14:12.751Z,72.7
2017-10-30T09:15:12.777Z,72.32
2017-10-30T09:16:13.105Z,72.03
2017-10-30T09:17:12.803Z,72.03
2017-10-30T09:18:12.818Z,72.51
2017-10-30T09:19:13.156Z,71.66
2017-10-30T09:20:13.179Z,71.56
2017-10-30T09:21:13.196Z,72.03
2017-10-30T09:22:13.204Z,70.45
2017-10-30T09:23:13.225Z,71.02
2017-10-30T09:24:12.924Z,71.37
2017-10-30T09:25:12.943Z,72.03
2017-10-30T09:26:13.289Z,71.66
2017-10-30T09:27:12.968Z,72.32
2017-10-30T09:28:13.307Z,72.22
2017-10-30T09:29:13.330Z,71.66
2017-10-30T09:30:13.341Z,71.66
2017-10-30T09:31:13.038Z,71.5
2017-10-30T09:32:13.052Z,70.93
2017-10-30T09:33:13.391Z,71.41
2017-10-30T09:34:13.410Z,71.84
2017-10-30T09:35:13.433Z,71.78
2017-10-30T09:36:13.119Z,71.41
2017-10-30T09:37:13.137Z,71.12
2017-10-30T09:38:13.478Z,70.26
2017-10-30T09:39:13.495Z,70.39
2017-10-30T09:40:13.512Z,70.54
2017-10-30T09:41:13.532Z,70.74
2017-10-30T09:42:13.550Z,71.78
2017-10-30T09:43:13.560Z,71.78
2017-10-30T09:44:13.616Z,72.35
2017-10-30T09:45:13.593Z,72.45
2017-10-30T09:46:13.630Z,71.78
2017-10-30T09:47:13.308Z,71.69
2017-10-30T09:48:13.647Z,71.12
2017-10-30T09:49:13.661Z,70.83
2017-10-30T09:50:13.358Z,71.12
2017-10-30T09:51:13.757Z,71.5
2017-10-30T09:52:13.717Z,71.02
2017-10-30T09:53:13.730Z,70.64
2017-10-30T09:54:13.430Z,70.26
2017-10-30T09:55:13.445Z,69.79
2017-10-30T09:56:13.466Z,68.93
2017-10-30T09:57:13.483Z,69.02
2017-10-30T09:58:13.821Z,69.21
2017-10-30T09:59:13.506Z,69.02
2017-10-30T10:00:13.857Z,69.02
2017-10-30T10:01:13.551Z,67.25
2017-10-30T10:02:13.913Z,67.63
2017-10-30T10:03:13.913Z,67.79
2017-10-30T10:04:13.942Z,68.07
2017-10-30T10:05:13.945Z,67.88
2017-10-30T10:06:13.966Z,67.6
2017-10-30T10:07:13.983Z,67.63
2017-10-30T10:08:14.049Z,66.11
2017-10-30T10:09:13.697Z,65.45
2017-10-30T10:10:13.715Z,64.05
2017-10-30T10:11:13.734Z,63.29
2017-10-30T10:12:14.098Z,62.46
2017-10-30T10:13:13.774Z,61.25
2017-10-30T10:14:14.117Z,59.74
2017-10-30T10:15:13.817Z,58.69
2017-10-30T10:16:14.158Z,58.33
2017-10-30T10:17:14.197Z,57.67
2017-10-30T10:18:13.883Z,56.43
2017-10-30T10:19:14.225Z,56.33
2017-10-30T10:20:13.927Z,55.76
2017-10-30T10:21:13.948Z,55
2017-10-30T10:22:13.980Z,54.52
2017-10-30T10:23:14.317Z,55.38
2017-10-30T10:24:14.340Z,54.61
2017-10-30T10:25:14.371Z,53.76
2017-10-30T10:26:14.061Z,52.83
2017-10-30T10:27:14.136Z,51.97
2017-10-30T10:28:14.430Z,50.95
2017-10-30T10:29:14.123Z,51.31
2017-10-30T10:30:14.479Z,51.02
2017-10-30T10:31:14.490Z,50.38
2017-10-30T10:32:14.519Z,49.9
2017-10-30T10:33:14.231Z,49.9
2017-10-30T10:34:14.253Z,51.23
2017-10-30T10:35:14.613Z,50.31
2017-10-30T10:36:14.628Z,49.16
2017-10-30T10:37:14.346Z,47.08
2017-10-30T10:38:14.352Z,47.08
2017-10-30T10:39:14.375Z,47.25
2017-10-30T10:40:14.399Z,48.39
2017-10-30T10:41:14.751Z,48.85
2017-10-30T10:42:14.825Z,49.49
2017-10-30T10:43:14.480Z,49.52
2017-10-30T10:44:14.504Z,49.87
2017-10-30T10:45:14.849Z,50.54
2017-10-30T10:46:14.872Z,50.63
2017-10-30T10:47:14.895Z,50.92
2017-10-30T10:48:14.922Z,50.45
2017-10-30T10:49:14.945Z,49.04
2017-10-30T10:50:14.969Z,46.94
2017-10-30T10:51:15.002Z,45.63
2017-10-30T10:52:15.016Z,44.94
2017-10-30T10:53:14.720Z,45.03
2017-10-30T10:54:14.745Z,45.03
2017-10-30T10:55:14.766Z,45.06
2017-10-30T10:56:15.111Z,46.08
2017-10-30T10:57:15.147Z,46.54
2017-10-30T10:58:14.838Z,47.39
2017-10-30T10:59:14.859Z,47.3
2017-10-30T11:00:15.201Z,48.07
2017-10-30T11:01:14.906Z,48.23
2017-10-30T11:02:14.928Z,48.13
2017-10-30T11:03:15.269Z,49.28
2017-10-30T11:04:14.972Z,49.08
2017-10-30T11:05:15.317Z,49.18
2017-10-30T11:06:15.013Z,49.95
2017-10-30T11:07:15.364Z,50.52
2017-10-30T11:08:15.396Z,50.71
2017-10-30T11:09:15.400Z,51.06
2017-10-30T11:10:15.100Z,51.16
2017-10-30T11:11:15.120Z,51.73
2017-10-30T11:12:15.466Z,52.04
2017-10-30T11:13:15.159Z,51.37
2017-10-30T11:14:15.514Z,51.76
2017-10-30T11:15:15.250Z,52.33
2017-10-30T11:16:15.545Z,53.06
2017-10-30T11:17:15.562Z,52.68
2017-10-30T11:18:15.259Z,52.4
2017-10-30T11:19:15.604Z,52.4
2017-10-30T11:20:15.619Z,52.87
2017-10-30T11:21:15.639Z,52.59
2017-10-30T11:22:15.668Z,51.73
2017-10-30T11:23:15.677Z,52.78
2017-10-30T11:24:15.697Z,52.01
2017-10-30T11:25:15.719Z,52.01
2017-10-30T11:26:15.739Z,51.92
2017-10-30T11:27:15.435Z,51.73
2017-10-30T11:28:15.778Z,52.56
2017-10-30T11:29:15.473Z,53.7
2017-10-30T11:30:15.817Z,53.7
2017-10-30T11:31:15.575Z,53.89
2017-10-30T11:32:15.851Z,53.8
2017-10-30T11:33:15.548Z,53.99
2017-10-30T11:34:15.890Z,53.61
2017-10-30T11:35:15.913Z,54.37
2017-10-30T11:36:15.922Z,55.32
2017-10-30T11:37:15.624Z,55.32
2017-10-30T11:38:15.663Z,55.58
2017-10-30T11:39:15.658Z,56.05
2017-10-30T11:40:16.002Z,55.2
2017-10-30T11:41:15.705Z,55.2
2017-10-30T11:42:16.048Z,55.51
2017-10-30T11:43:15.732Z,55.32
2017-10-30T11:44:16.074Z,55.61
2017-10-30T11:45:16.099Z,55.32
2017-10-30T11:46:15.866Z,55.87
2017-10-30T11:47:16.127Z,56.53
2017-10-30T11:48:16.146Z,57.87
2017-10-30T11:49:15.845Z,58.4
2017-10-30T11:50:15.860Z,59.17
2017-10-30T11:51:16.198Z,58.31
2017-10-30T11:52:15.894Z,58.22
2017-10-30T11:53:16.246Z,58.4
2017-10-30T11:54:15.930Z,58.5
2017-10-30T11:55:16.271Z,58.59
2017-10-30T11:56:16.297Z,58.79
2017-10-30T11:57:15.988Z,59.17
2017-10-30T11:58:16.331Z,58.4
2017-10-30T11:59:16.342Z,58.5
2017-10-30T12:00:16.037Z,58.22
2017-10-30T12:01:16.387Z,57.87
2017-10-30T12:02:16.399Z,57.87
2017-10-30T12:03:16.416Z,57.48
2017-10-30T12:04:16.434Z,57.01
2017-10-30T12:05:16.128Z,57.2
2017-10-30T12:06:16.146Z,55.9
2017-10-30T12:07:16.495Z,56.27
2017-10-30T12:08:16.507Z,55.51
2017-10-30T12:09:16.521Z,55.58
2017-10-30T12:10:16.217Z,56.15
2017-10-30T12:11:16.563Z,55.77
2017-10-30T12:12:16.256Z,56.63
2017-10-30T12:13:16.593Z,57.39
2017-10-30T12:14:16.609Z,57.77
2017-10-30T12:15:16.315Z,58.59
2017-10-30T12:16:16.648Z,58.5
2017-10-30T12:17:16.667Z,58.15
2017-10-30T12:18:16.693Z,58.5
2017-10-30T12:19:16.906Z,58.59
2017-10-30T12:20:16.724Z,58.79
2017-10-30T12:21:16.741Z,58.72
2017-10-30T12:22:16.756Z,59.39
2017-10-30T12:23:16.783Z,59.39
2017-10-30T12:24:16.795Z,60.88
2017-10-30T12:25:16.491Z,62.12
2017-10-30T12:26:16.511Z,63.07
2017-10-30T12:27:16.528Z,63.54
2017-10-30T12:28:16.872Z,64.15
2017-10-30T12:29:16.892Z,63.92
2017-10-30T12:30:16.581Z,64.59
2017-10-30T12:31:16.924Z,65.54
2017-10-30T12:32:16.942Z,66.87
2017-10-30T12:33:16.958Z,66.3
2017-10-30T12:34:16.704Z,65.54
2017-10-30T12:35:16.995Z,65.54
2017-10-30T12:36:16.712Z,66.2
2017-10-30T12:37:16.718Z,65.73
2017-10-30T12:38:16.720Z,64.97
2017-10-30T12:39:17.071Z,64.97
2017-10-30T12:40:16.758Z,64.78
2017-10-30T12:41:17.097Z,64.87
2017-10-30T12:42:17.122Z,64.5
2017-10-30T12:43:16.813Z,64.59
2017-10-30T12:44:17.147Z,64.69
2017-10-30T12:45:17.173Z,65.16
2017-10-30T12:46:17.185Z,64.31
2017-10-30T12:47:16.883Z,63.48
2017-10-30T12:48:16.900Z,63.48
2017-10-30T12:49:17.243Z,62.43
2017-10-30T12:50:16.937Z,61.9
2017-10-30T12:51:16.958Z,60.94
2017-10-30T12:52:17.297Z,59.35
2017-10-30T12:53:17.120Z,56.81
2017-10-30T12:54:17.016Z,56.52
2017-10-30T12:55:17.356Z,56.04